Time;durP1;ratioP1;P1;durP2;ratioP2;P2;SDS_P1;SDS_P2;PMS_P1;PMS_P2;Temp;Humidity;BMP_temperature;BMP_pressure;BME280_temperature;BME280_humidity;BME280_pressure;Samples;Min_cycle;Max_cycle;Signal;HPM_P1;HPM_P2
2021/10/01 00:01:48;;;;;;;19.35;10.63;;;;;;;8.86;85.28;101389.17;2812503;83;21052;-61
2021/10/01 00:05:58;;;;;;;18.10;11.08;;;;;;;8.78;86.47;101391.39;2859721;82;21040;-63
2021/10/01 00:10:00;;;;;;;21.25;12.20;;;;;;;8.64;86.87;101378.43;2863651;82;21001;-61
2021/10/01 00:14:02;;;;;;;15.60;12.07;;;;;;;8.63;87.09;101386.00;2854911;82;20996;-72
2021/10/01 00:18:05;;;;;;;20.65;14.45;;;;;;;8.60;87.88;101386.67;2843526;82;21044;-61
2021/10/01 00:22:07;;;;;;;16.57;11.12;;;;;;;8.64;87.64;101379.75;2846779;82;21083;-64
2021/10/01 00:26:09;;;;;;;18.98;12.35;;;;;;;8.53;87.29;101385.66;2774725;85;21103;-65
2021/10/01 00:30:11;;;;;;;18.67;10.82;;;;;;;8.31;87.56;101396.59;2763591;85;21035;-63
2021/10/01 00:34:13;;;;;;;19.80;13.38;;;;;;;8.25;87.67;101388.95;2861632;82;21011;-75
2021/10/01 00:38:15;;;;;;;20.40;14.05;;;;;;;8.12;88.95;101384.78;2783867;85;21084;-63
2021/10/01 00:42:16;;;;;;;19.30;12.65;;;;;;;8.02;89.78;101385.75;2809870;83;21095;-63
2021/10/01 00:46:18;;;;;;;19.85;13.45;;;;;;;7.90;89.91;101379.31;2863165;82;21117;-67
2021/10/01 00:50:20;;;;;;;19.17;12.70;;;;;;;7.81;90.01;101375.36;2862434;82;21091;-65
2021/10/01 00:54:22;;;;;;;22.02;12.80;;;;;;;7.88;90.24;101372.41;2868926;82;21008;-67
2021/10/01 00:58:24;;;;;;;18.85;12.93;;;;;;;7.93;89.17;101367.70;2867961;82;20988;-64
2021/10/01 01:02:28;;;;;;;20.88;13.78;;;;;;;7.86;89.24;101361.42;2768869;85;21131;-66
2021/10/01 01:06:54;;;;;;;19.98;13.10;;;;;;;7.80;89.17;101361.73;2779582;85;21576;-65
2021/10/01 01:11:04;;;;;;;22.75;11.83;;;;;;;7.70;89.98;101357.38;2822930;83;21021;-66
2021/10/01 01:15:12;;;;;;;22.50;14.40;;;;;;;7.63;90.93;101357.33;2810995;84;21160;-65
2021/10/01 01:19:39;;;;;;;16.35;13.00;;;;;;;7.62;90.97;101356.08;2813988;84;21078;-62
2021/10/01 01:24:31;;;;;;;31.00;14.35;;;;;;;7.63;90.56;101360.43;2804396;83;21097;-62
2021/10/01 01:29:24;;;;;;;18.48;12.65;;;;;;;7.66;90.48;101356.29;2810836;84;20996;-66
2021/10/01 01:33:34;;;;;;;18.40;12.85;;;;;;;7.60;90.05;101356.63;2811161;84;21090;-69
2021/10/01 01:37:55;;;;;;;15.80;14.15;;;;;;;7.55;90.34;101348.91;2819760;83;20987;-65
2021/10/01 01:41:59;;;;;;;16.62;12.60;;;;;;;7.55;90.76;101340.52;2764331;85;21146;-62
2021/10/01 01:46:03;;;;;;;22.80;14.13;;;;;;;7.57;90.47;101343.94;2846408;83;21031;-63
2021/10/01 01:50:08;;;;;;;23.47;14.28;;;;;;;7.47;90.30;101341.40;2840115;83;21022;-64
2021/10/01 01:54:11;;;;;;;19.90;14.53;;;;;;;7.42;90.63;101340.76;2834894;83;20987;-66
2021/10/01 01:58:16;;;;;;;20.88;15.70;;;;;;;7.36;90.87;101339.27;2842390;83;21063;-66
2021/10/01 02:02:19;;;;;;;25.97;13.93;;;;;;;7.31;91.12;101338.66;2833313;83;21014;-63
2021/10/01 02:06:22;;;;;;;20.77;13.75;;;;;;;7.22;91.40;101338.66;2810325;84;20952;-63
2021/10/01 02:10:26;;;;;;;31.40;13.03;;;;;;;7.17;91.45;101334.08;2824063;83;21063;-62
2021/10/01 02:18:55;;;;;;;26.65;13.85;;;;;;;7.15;91.54;101335.47;2774364;86;20999;-64
2021/10/01 02:22:58;;;;;;;22.17;12.68;;;;;;;7.24;91.75;101330.17;2835230;83;21055;-62
2021/10/01 02:27:22;;;;;;;23.15;15.38;;;;;;;7.34;91.18;101328.40;2807951;84;20980;-64
2021/10/01 02:31:28;;;;;;;20.15;13.75;;;;;;;7.37;91.13;101325.59;2813095;84;21090;-64
2021/10/01 02:35:31;;;;;;;20.43;13.75;;;;;;;7.37;90.38;101322.94;2814192;83;21078;-67
2021/10/01 02:39:48;;;;;;;18.82;12.80;;;;;;;7.31;90.48;101326.75;2818186;84;21024;-61
2021/10/01 02:43:57;;;;;;;23.60;13.65;;;;;;;7.29;90.99;101324.66;2820981;84;21007;-63
2021/10/01 02:48:02;;;;;;;22.37;12.82;;;;;;;7.34;90.55;101317.81;2774262;85;21132;-63
2021/10/01 02:52:47;;;;;;;24.45;13.50;;;;;;;7.33;90.42;101318.75;2772174;85;21039;-62
2021/10/01 02:56:54;;;;;;;25.30;14.47;;;;;;;7.35;90.72;101318.20;2784388;85;21055;-62
2021/10/01 03:00:58;;;;;;;22.10;14.05;;;;;;;7.49;90.84;101314.38;2778428;85;21004;-66
2021/10/01 03:05:02;;;;;;;17.20;10.75;;;;;;;7.64;90.15;101314.47;2777016;84;20952;-62
2021/10/01 03:09:11;;;;;;;17.77;11.90;;;;;;;7.74;89.28;101311.73;2787592;85;21138;-62
2021/10/01 03:13:22;;;;;;;20.15;13.05;;;;;;;7.77;88.79;101316.86;2765812;85;21072;-65
2021/10/01 03:17:25;;;;;;;26.30;11.70;;;;;;;7.76;88.06;101319.58;2782793;85;21142;-64
2021/10/01 03:21:28;;;;;;;22.35;13.78;;;;;;;7.69;87.95;101317.76;2772080;84;21076;-60
2021/10/01 03:25:30;;;;;;;18.92;12.70;;;;;;;7.54;87.71;101313.66;2754970;85;20988;-59
2021/10/01 03:29:42;;;;;;;14.90;11.70;;;;;;;7.51;88.34;101307.66;2764270;85;21061;-56
2021/10/01 03:34:01;;;;;;;17.70;13.88;;;;;;;7.46;87.85;101301.75;2780126;85;21333;-57
2021/10/01 03:38:03;;;;;;;21.97;13.78;;;;;;;7.40;88.03;101309.55;2768722;83;21008;-58
2021/10/01 03:42:07;;;;;;;17.32;13.20;;;;;;;7.34;88.51;101309.87;2765209;82;21131;-57
2021/10/01 03:50:37;;;;;;;25.15;14.65;;;;;;;7.32;88.49;101305.97;2748511;85;21079;-59
2021/10/01 03:54:53;;;;;;;21.55;13.08;;;;;;;7.34;88.63;101305.41;2764346;85;21036;-57
2021/10/01 03:58:57;;;;;;;20.25;12.98;;;;;;;7.29;88.32;101302.16;2751437;85;21109;-58
2021/10/01 04:03:04;;;;;;;19.48;11.93;;;;;;;7.12;88.35;101301.23;2818621;83;21253;-56
2021/10/01 04:07:05;;;;;;;17.52;10.93;;;;;;;7.02;89.15;101297.36;2828704;84;20991;-57
2021/10/01 04:11:08;;;;;;;15.35;11.45;;;;;;;6.93;89.76;101297.36;2821625;83;21591;-57
2021/10/01 04:15:10;;;;;;;25.85;12.25;;;;;;;6.94;90.15;101292.91;2754614;85;21035;-57
2021/10/01 04:19:11;;;;;;;16.27;10.72;;;;;;;7.02;90.14;101296.48;2843728;82;21050;-57
2021/10/01 04:23:14;;;;;;;18.55;11.18;;;;;;;7.11;89.98;101297.36;2815638;84;21007;-57
2021/10/01 04:27:16;;;;;;;16.20;11.25;;;;;;;7.21;89.57;101288.00;2827226;83;21023;-58
2021/10/01 04:31:18;;;;;;;12.25;7.80;;;;;;;7.29;89.11;101277.89;2757348;85;21048;-58
2021/10/01 04:35:42;;;;;;;10.75;7.42;;;;;;;7.33;88.40;101281.69;2752607;85;20988;-57
2021/10/01 04:39:44;;;;;;;12.33;8.15;;;;;;;7.16;88.14;101279.45;2752107;85;21012;-59
2021/10/01 04:43:48;;;;;;;13.58;8.05;;;;;;;7.14;88.53;101274.22;2748903;85;21032;-58
2021/10/01 04:47:51;;;;;;;10.82;8.95;;;;;;;7.19;88.87;101274.48;2751189;85;21056;-59
2021/10/01 04:51:53;;;;;;;13.60;8.68;;;;;;;7.26;88.35;101272.73;2829009;83;21031;-57
2021/10/01 04:55:55;;;;;;;18.60;11.45;;;;;;;7.28;88.20;101280.15;2840507;82;21072;-59
2021/10/01 04:59:56;;;;;;;13.48;10.45;;;;;;;7.29;87.92;101290.25;2837789;83;21054;-57
2021/10/01 05:03:58;;;;;;;14.45;9.60;;;;;;;7.32;88.11;101279.98;2814030;83;20980;-57
2021/10/01 05:08:03;;;;;;;13.85;10.05;;;;;;;7.34;87.74;101284.72;2812854;84;20972;-59
2021/10/01 05:12:14;;;;;;;17.02;10.68;;;;;;;7.29;87.69;101293.77;2809694;84;21026;-57
2021/10/01 05:16:16;;;;;;;14.83;10.75;;;;;;;7.33;88.11;101290.47;2806213;83;21061;-58
2021/10/01 05:20:18;;;;;;;15.00;9.40;;;;;;;7.36;88.09;101290.30;2805870;83;20983;-58
2021/10/01 05:24:19;;;;;;;18.02;9.63;;;;;;;7.50;88.25;101290.93;2800478;83;21057;-58
2021/10/01 05:28:21;;;;;;;17.95;10.03;;;;;;;7.65;87.92;101293.22;2839265;83;21019;-58
2021/10/01 05:32:23;;;;;;;14.90;8.73;;;;;;;7.78;87.62;101289.44;2842876;83;20979;-57
2021/10/01 05:36:36;;;;;;;11.93;9.18;;;;;;;7.91;87.37;101297.56;2865522;82;22308;-58
2021/10/01 05:40:49;;;;;;;18.05;9.13;;;;;;;8.12;87.78;101286.73;2888709;82;21096;-59
2021/10/01 05:44:51;;;;;;;9.40;7.85;;;;;;;8.33;86.96;101287.79;2886134;82;21054;-61
2021/10/01 05:48:57;;;;;;;14.20;11.05;;;;;;;8.36;86.54;101289.80;2837609;82;21020;-59
2021/10/01 05:53:03;;;;;;;11.20;9.70;;;;;;;8.47;86.59;101289.69;2801082;83;21029;-59
2021/10/01 05:57:04;;;;;;;18.02;11.10;;;;;;;8.59;86.86;101289.48;2796823;84;21073;-58
2021/10/01 06:01:09;;;;;;;11.90;8.95;;;;;;;8.66;86.06;101295.67;2838688;83;21019;-57
2021/10/01 06:05:13;;;;;;;14.83;9.78;;;;;;;8.70;86.06;101282.61;2844141;83;21046;-58
2021/10/01 06:09:18;;;;;;;16.93;8.43;;;;;;;8.78;86.47;101278.64;2824666;83;21023;-58
2021/10/01 06:13:18;;;;;;;13.38;8.53;;;;;;;8.98;87.14;101282.30;2800226;83;21022;-58
2021/10/01 06:17:22;;;;;;;10.43;7.62;;;;;;;9.23;86.63;101280.83;2765222;84;21039;-60
2021/10/01 06:21:24;;;;;;;10.25;8.40;;;;;;;9.39;85.81;101278.11;2817555;83;21001;-58
2021/10/01 06:25:26;;;;;;;14.18;9.13;;;;;;;9.50;85.24;101284.55;2835856;83;21054;-59
2021/10/01 06:29:52;;;;;;;12.47;8.90;;;;;;;9.47;84.95;101281.63;2829423;82;21056;-59
2021/10/01 06:33:53;;;;;;;11.38;8.23;;;;;;;9.47;85.45;101286.94;2776478;84;21079;-59
2021/10/01 06:37:55;;;;;;;12.10;8.48;;;;;;;9.59;86.05;101285.33;2836743;83;21131;-58
2021/10/01 06:41:58;;;;;;;15.15;9.30;;;;;;;9.79;86.55;101284.07;2815027;81;20994;-58
2021/10/01 06:46:16;;;;;;;9.75;7.37;;;;;;;10.11;86.54;101280.31;2814568;83;21036;-58
2021/10/01 06:50:29;;;;;;;11.55;8.65;;;;;;;10.34;85.78;101278.01;2829599;83;20972;-59
2021/10/01 08:22:16;;;;;;;8.60;5.30;;;;;;;15.12;74.78;101258.95;2711737;84;21142;-59
2021/10/01 08:26:17;;;;;;;7.85;4.58;;;;;;;15.42;74.38;101249.25;2801348;80;21078;-61
2021/10/01 08:30:19;;;;;;;7.17;3.60;;;;;;;15.64;72.62;101247.36;2793902;81;21069;-59
2021/10/01 08:34:21;;;;;;;3.87;3.47;;;;;;;15.79;71.39;101236.63;2829844;83;21062;-59
2021/10/01 08:38:36;;;;;;;7.65;4.00;;;;;;;15.95;71.80;101233.94;2784110;80;21061;-59
2021/10/01 08:42:47;;;;;;;8.90;3.95;;;;;;;16.15;71.82;101233.98;2838113;82;21063;-59
2021/10/01 08:46:53;;;;;;;7.47;4.45;;;;;;;16.31;69.58;101228.91;2835749;82;20976;-59
2021/10/01 08:51:02;;;;;;;5.45;4.10;;;;;;;16.40;69.96;101220.48;2789683;81;21062;-58
2021/10/01 08:55:09;;;;;;;8.70;4.17;;;;;;;16.41;68.65;101217.66;2790097;81;21062;-58
2021/10/01 08:59:11;;;;;;;8.98;5.45;;;;;;;16.42;69.26;101211.30;2823611;81;21063;-59
2021/10/01 09:03:13;;;;;;;10.43;3.75;;;;;;;16.45;69.08;101215.55;2794654;83;21039;-58
2021/10/01 09:07:15;;;;;;;5.40;3.75;;;;;;;16.44;69.01;101208.97;2844313;81;21102;-57
2021/10/01 09:11:18;;;;;;;11.22;5.20;;;;;;;16.55;68.26;101208.84;2792067;83;20972;-58
2021/10/01 09:15:22;;;;;;;5.30;3.90;;;;;;;16.64;68.84;101203.10;2771255;84;21008;-57
2021/10/01 09:19:28;;;;;;;5.78;4.25;;;;;;;16.74;69.32;101193.69;2849400;81;21065;-58
2021/10/01 09:23:43;;;;;;;8.78;5.30;;;;;;;16.92;69.15;101199.16;2845135;81;21042;-60
2021/10/01 09:27:53;;;;;;;18.52;10.30;;;;;;;17.06;67.67;101184.42;2847982;81;20972;-58
2021/10/01 09:31:55;;;;;;;6.35;4.92;;;;;;;17.15;67.73;101183.56;2742332;84;21173;-58
2021/10/01 09:36:12;;;;;;;9.40;3.92;;;;;;;17.33;66.65;101174.72;2797641;83;21099;-58
2021/10/01 09:40:14;;;;;;;5.85;5.03;;;;;;;17.52;66.27;101165.69;2790605;84;21069;-58
2021/10/01 09:44:16;;;;;;;6.40;3.77;;;;;;;17.61;65.81;101154.53;2774389;84;21037;-58
2021/10/01 09:48:22;;;;;;;13.35;12.25;;;;;;;17.66;65.81;101154.91;2818495;82;21083;-58
2021/10/01 09:52:25;;;;;;;7.45;6.10;;;;;;;17.82;65.41;101148.88;2834837;82;21036;-58
2021/10/01 09:56:34;;;;;;;8.35;7.10;;;;;;;17.96;64.86;101142.12;2784330;84;21051;-60
2021/10/01 10:00:54;;;;;;;6.12;5.25;;;;;;;17.94;62.95;101142.77;2834966;82;20982;-60
2021/10/01 10:04:56;;;;;;;5.15;4.50;;;;;;;18.07;63.47;101137.86;2835437;82;21027;-57
2021/10/01 10:09:04;;;;;;;3.08;2.87;;;;;;;18.25;63.96;101128.44;2791813;81;21606;-57
2021/10/01 10:13:07;;;;;;;7.12;3.02;;;;;;;18.32;62.13;101129.16;2792927;84;21037;-57
2021/10/01 10:17:26;;;;;;;3.98;2.52;;;;;;;18.44;62.08;101125.22;2848537;81;21250;-60
2021/10/01 10:21:31;;;;;;;3.65;2.05;;;;;;;18.59;61.81;101117.40;2837252;82;21231;-59
2021/10/01 10:25:32;;;;;;;2.35;2.15;;;;;;;18.66;59.63;101113.05;2817090;83;21019;-58
2021/10/01 10:29:35;;;;;;;4.20;2.87;;;;;;;18.65;57.16;101108.67;2820529;83;21062;-61
2021/10/01 10:33:52;;;;;;;4.72;2.72;;;;;;;18.79;58.10;101096.97;2798322;83;21378;-61
2021/10/01 10:37:54;;;;;;;26.20;15.38;;;;;;;18.88;59.50;101098.72;2804401;83;21047;-59
2021/10/01 10:42:32;;;;;;;13.90;5.47;;;;;;;18.97;58.69;101080.73;2804789;82;21023;-59
2021/10/01 10:46:41;;;;;;;3.08;1.85;;;;;;;18.98;56.84;101081.07;2831987;81;21090;-62
2021/10/01 10:50:46;;;;;;;13.43;6.90;;;;;;;18.98;56.46;101069.80;2819131;83;21055;-59
2021/10/01 10:54:56;;;;;;;4.33;2.37;;;;;;;19.01;56.54;101061.05;2821889;82;21042;-59
2021/10/01 10:59:30;;;;;;;8.33;3.42;;;;;;;19.05;56.43;101055.17;2758196;85;21094;-57
2021/10/01 11:03:33;;;;;;;19.42;12.50;;;;;;;19.09;56.50;101050.31;2831792;82;20973;-58
2021/10/01 11:08:02;;;;;;;6.00;3.72;;;;;;;19.17;54.63;101040.88;2773322;83;21024;-61
2021/10/01 11:12:11;;;;;;;3.55;2.65;;;;;;;19.17;54.30;101038.19;2722425;86;21024;-60
2021/10/01 11:16:19;;;;;;;12.93;4.42;;;;;;;19.22;54.40;101037.18;2803579;82;20983;-61
2021/10/01 11:20:37;;;;;;;12.85;2.92;;;;;;;19.28;53.82;101030.28;2842043;81;21015;-58
2021/10/01 11:24:45;;;;;;;4.45;0.93;;;;;;;19.30;52.94;101023.39;2845978;82;20975;-62
2021/10/01 11:28:48;;;;;;;1.92;1.15;;;;;;;19.39;52.70;101021.03;2788422;84;21000;-59
2021/10/01 11:32:52;;;;;;;8.05;6.08;;;;;;;19.48;53.96;101021.41;2789439;84;21016;-58
2021/10/01 11:36:54;;;;;;;5.08;1.47;;;;;;;19.51;52.10;101004.88;2854990;81;20971;-58
2021/10/01 11:41:16;;;;;;;1.62;0.33;;;;;;;19.52;52.19;101011.95;2767106;83;21040;-59
2021/10/01 11:49:35;;;;;;;1.62;1.35;;;;;;;19.58;49.93;100993.41;2792247;83;21078;-62
2021/10/01 11:53:39;;;;;;;2.80;1.17;;;;;;;19.44;49.60;100982.78;2834666;83;21044;-61
2021/10/01 11:58:18;;;;;;;3.08;1.72;;;;;;;19.34;49.49;100991.86;2815369;83;20982;-58
2021/10/01 12:02:46;;;;;;;6.30;1.87;;;;;;;19.33;50.09;100978.55;2778058;83;21091;-59
2021/10/01 12:06:48;;;;;;;4.15;1.02;;;;;;;19.29;50.29;100972.64;2811739;83;21042;-62
2021/10/01 12:10:55;;;;;;;3.33;2.92;;;;;;;19.24;49.32;100976.34;2787350;84;20985;-58
2021/10/01 12:14:59;;;;;;;3.10;1.00;;;;;;;19.19;49.60;100966.05;2794609;83;21031;-58
2021/10/01 12:19:05;;;;;;;1.62;0.72;;;;;;;19.16;49.45;100960.99;2803218;83;20991;-60
2021/10/01 12:23:58;;;;;;;1.25;1.15;;;;;;;19.21;50.45;100956.45;2801386;83;21072;-59
2021/10/01 12:28:24;;;;;;;13.83;3.85;;;;;;;19.22;49.34;100953.58;2788518;83;21028;-59
2021/10/01 12:32:40;;;;;;;2.40;0.80;;;;;;;19.14;49.62;100938.75;2789834;83;21148;-58
2021/10/01 12:36:47;;;;;;;1.98;1.32;;;;;;;19.24;50.64;100934.02;2777893;83;20969;-58
2021/10/01 12:41:15;;;;;;;3.08;1.10;;;;;;;19.38;51.23;100933.89;2791651;81;21032;-59
2021/10/01 12:45:21;;;;;;;7.33;2.37;;;;;;;19.49;50.39;100923.27;2785655;84;21035;-60
2021/10/01 12:49:31;;;;;;;2.25;1.25;;;;;;;19.48;50.36;100920.23;2830977;82;21036;-59
2021/10/01 12:53:36;;;;;;;1.98;0.70;;;;;;;19.48;49.45;100916.19;2830933;82;21044;-59
2021/10/01 12:57:42;;;;;;;6.07;1.67;;;;;;;19.52;49.71;100912.62;2824088;83;20992;-59
2021/10/01 13:01:44;;;;;;;3.17;1.62;;;;;;;19.62;50.02;100897.60;2849704;82;21014;-58
2021/10/01 13:05:47;;;;;;;2.00;1.20;;;;;;;19.61;50.41;100900.83;2843836;82;21545;-58
2021/10/01 13:09:50;;;;;;;4.03;1.60;;;;;;;19.66;50.68;100889.53;2848480;80;21026;-62
2021/10/01 13:13:59;;;;;;;3.90;1.15;;;;;;;19.69;50.48;100890.00;2827746;82;21043;-58
2021/10/01 13:18:40;;;;;;;4.08;1.32;;;;;;;19.63;49.72;100881.25;2728314;86;21079;-58
2021/10/01 13:28:43;;;;;;;5.42;2.65;;;;;;;19.65;49.28;100875.67;2830500;83;30576;-67
2021/10/01 13:32:45;;;;;;;2.52;1.20;;;;;;;19.74;49.18;100871.09;2834039;82;21088;-65
2021/10/01 13:36:49;;;;;;;1.50;1.02;;;;;;;19.81;49.31;100863.49;2839804;83;21033;-66
2021/10/01 13:40:51;;;;;;;5.08;1.35;;;;;;;19.89;48.95;100864.50;2788874;83;21015;-66
2021/10/01 13:45:00;;;;;;;2.05;0.72;;;;;;;19.88;48.53;100857.42;2834821;83;20976;-66
2021/10/01 13:49:30;;;;;;;1.07;0.55;;;;;;;19.93;48.52;100846.97;2835907;83;21147;-65
2021/10/01 13:53:33;;;;;;;6.05;1.92;;;;;;;19.97;48.28;100838.36;2834772;82;21125;-66
2021/10/01 13:57:35;;;;;;;4.53;1.55;;;;;;;20.01;48.64;100844.75;2839677;82;21030;-69
2021/10/01 14:01:41;;;;;;;4.70;1.35;;;;;;;19.99;48.65;100823.31;2813059;83;20979;-69
2021/10/01 14:06:07;;;;;;;22.22;9.40;;;;;;;19.97;48.34;100822.16;2812303;83;21063;-66
2021/10/01 14:10:15;;;;;;;28.02;18.55;;;;;;;19.94;48.37;100810.86;2844662;82;21045;-66
2021/10/01 14:14:16;;;;;;;15.05;8.40;;;;;;;19.90;48.71;100810.32;2837057;82;21019;-69
2021/10/01 14:18:28;;;;;;;15.72;6.10;;;;;;;19.87;49.00;100811.20;2836272;82;21031;-68
2021/10/01 14:22:31;;;;;;;8.95;3.70;;;;;;;19.87;48.52;100803.10;2837516;82;21031;-66
2021/10/01 14:26:34;;;;;;;8.13;3.90;;;;;;;19.80;48.64;100801.08;2836425;82;21024;-65
2021/10/01 14:30:38;;;;;;;2.67;1.10;;;;;;;19.75;48.61;100794.02;2835673;82;21074;-68
2021/10/01 14:34:40;;;;;;;1.62;1.47;;;;;;;19.73;48.22;100785.26;2836069;83;21011;-67
2021/10/01 14:38:52;;;;;;;3.58;1.00;;;;;;;19.74;49.22;100787.43;2836968;83;21049;-68
2021/10/01 14:43:17;;;;;;;3.17;2.30;;;;;;;19.69;48.77;100787.98;2843291;82;21043;-66
2021/10/01 14:47:29;;;;;;;3.57;1.70;;;;;;;19.61;49.75;100773.14;2846747;83;21816;-65
2021/10/01 14:51:27;;;;;;;3.92;2.92;;;;;;;19.61;49.75;100773.14;2835842;83;21753;-66
2021/10/01 14:55:29;;;;;;;5.20;2.15;;;;;;;19.60;50.43;100778.20;2836306;83;20979;-67
2021/10/01 14:59:39;;;;;;;4.15;1.42;;;;;;;19.59;49.79;100769.78;2837169;83;21011;-65
2021/10/01 15:03:41;;;;;;;2.80;1.20;;;;;;;19.52;50.75;100766.93;2836179;82;21126;-70
2021/10/01 15:07:44;;;;;;;6.08;3.72;;;;;;;19.44;50.44;100767.79;2836889;83;21012;-66
2021/10/01 15:12:49;;;;;;;3.60;2.85;;;;;;;19.38;53.94;100768.00;2838203;83;21019;-66
2021/10/01 15:16:51;;;;;;;8.30;4.72;;;;;;;19.25;55.20;100767.67;2835327;82;21018;-66
2021/10/01 15:20:53;;;;;;;6.03;3.80;;;;;;;19.09;56.41;100759.12;2835294;83;20952;-66
2021/10/01 15:25:01;;;;;;;13.25;7.67;;;;;;;18.97;57.16;100762.12;2836041;83;21054;-66
2021/10/01 15:29:02;;;;;;;5.70;3.67;;;;;;;18.81;57.79;100745.95;2747086;85;20977;-66
2021/10/01 15:33:26;;;;;;;3.80;3.08;;;;;;;18.64;57.98;100751.85;2757968;84;21127;-65
2021/10/01 15:37:36;;;;;;;5.12;2.92;;;;;;;18.52;58.95;100758.08;2781062;84;21036;-65
2021/10/01 15:41:43;;;;;;;8.18;3.92;;;;;;;18.35;58.87;100752.66;2759547;84;21082;-70
2021/10/01 15:50:21;;;;;;;3.90;2.83;;;;;;;18.15;59.51;100752.62;2832722;83;21082;-70
2021/10/01 15:54:23;;;;;;;8.33;3.40;;;;;;;18.02;60.00;100749.05;2780230;83;21114;-70
2021/10/01 15:58:25;;;;;;;5.22;3.20;;;;;;;17.87;60.62;100756.36;2775366;85;21126;-70
2021/10/01 16:02:26;;;;;;;6.12;3.02;;;;;;;17.70;61.38;100750.91;2787863;84;21024;-71
2021/10/01 16:06:28;;;;;;;8.53;3.75;;;;;;;17.52;61.83;100742.94;2763800;85;21492;-70
2021/10/01 16:10:31;;;;;;;6.00;4.58;;;;;;;17.34;62.15;100744.34;2754935;85;21063;-70
2021/10/01 16:14:33;;;;;;;6.67;4.33;;;;;;;17.22;62.91;100747.80;2803645;82;21091;-70
2021/10/01 16:18:35;;;;;;;6.30;3.85;;;;;;;17.07;63.36;100750.71;2842658;81;21026;-70
2021/10/01 16:22:36;;;;;;;7.33;4.55;;;;;;;16.92;63.86;100749.06;2841975;83;21056;-71
2021/10/01 16:26:38;;;;;;;12.00;4.05;;;;;;;16.75;64.43;100746.25;2800418;83;21551;-71
2021/10/01 16:30:40;;;;;;;6.95;4.20;;;;;;;16.57;64.87;100750.30;2799934;84;21052;-70
2021/10/01 16:34:42;;;;;;;6.87;4.80;;;;;;;16.43;65.10;100746.31;2803594;83;20977;-70
2021/10/01 16:38:43;;;;;;;4.83;4.28;;;;;;;16.27;65.51;100749.66;2846150;82;21051;-70
2021/10/01 16:42:45;;;;;;;5.87;4.87;;;;;;;16.08;65.87;100742.59;2778536;84;21055;-73
2021/10/01 16:46:49;;;;;;;11.22;4.45;;;;;;;15.92;66.27;100745.43;2757109;84;21122;-73
2021/10/01 16:50:51;;;;;;;6.37;4.60;;;;;;;15.80;66.40;100743.42;2755147;83;21134;-73
2021/10/01 16:54:53;;;;;;;8.30;5.83;;;;;;;15.71;66.73;100734.91;2758925;85;21042;-73
2021/10/01 16:58:55;;;;;;;10.58;6.12;;;;;;;15.57;67.20;100741.61;2804070;83;21072;-73
2021/10/01 17:02:57;;;;;;;11.20;6.45;;;;;;;15.47;67.53;100740.30;2779527;84;21052;-74
2021/10/01 17:06:59;;;;;;;11.20;6.47;;;;;;;15.36;67.73;100737.31;2781432;84;21518;-73
2021/10/01 17:11:01;;;;;;;24.85;12.93;;;;;;;15.29;68.02;100730.86;2782028;84;21031;-72
2021/10/01 17:15:06;;;;;;;15.80;9.90;;;;;;;15.16;68.33;100729.84;2786093;84;21060;-72
2021/10/01 17:19:08;;;;;;;10.77;7.17;;;;;;;15.04;68.71;100726.97;2796481;83;21056;-72
2021/10/01 17:23:11;;;;;;;14.87;8.93;;;;;;;14.85;69.40;100727.35;2759425;83;21085;-72
2021/10/01 17:27:12;;;;;;;19.37;10.48;;;;;;;14.68;69.94;100725.70;2765864;84;20978;-72
2021/10/01 17:31:15;;;;;;;24.18;12.55;;;;;;;14.52;70.61;100715.58;2792733;83;21409;-72
2021/10/01 17:35:17;;;;;;;14.45;9.55;;;;;;;14.38;71.28;100712.84;2714113;84;21062;-72
2021/10/01 17:39:19;;;;;;;14.65;8.73;;;;;;;14.26;71.85;100719.30;2753127;85;21094;-72
2021/10/01 17:43:20;;;;;;;13.20;9.33;;;;;;;14.16;72.32;100719.80;2784274;84;21107;-73
2021/10/01 17:47:22;;;;;;;11.57;8.88;;;;;;;14.06;72.76;100711.75;2785679;82;21327;-73
2021/10/01 17:51:24;;;;;;;14.80;10.55;;;;;;;13.93;73.18;100713.32;2790075;84;21384;-72
2021/10/01 17:55:26;;;;;;;12.25;10.20;;;;;;;13.79;73.75;100703.86;2719497;86;21464;-71
2021/10/01 17:59:27;;;;;;;13.50;10.82;;;;;;;13.67;74.21;100698.64;2778445;84;20989;-72
2021/10/01 18:03:29;;;;;;;14.98;10.98;;;;;;;13.53;74.85;100701.17;2765203;84;21079;-71
2021/10/01 18:07:32;;;;;;;12.00;10.70;;;;;;;13.38;75.34;100697.17;2781778;84;21028;-70
2021/10/01 18:11:33;;;;;;;21.23;11.50;;;;;;;13.27;75.88;100691.42;2772607;83;21076;-71
2021/10/01 18:15:35;;;;;;;18.55;11.28;;;;;;;13.14;76.41;100692.95;2780548;84;21064;-70
2021/10/01 18:19:37;;;;;;;12.37;9.30;;;;;;;13.04;76.80;100685.39;2790242;83;21063;-71
2021/10/01 18:23:39;;;;;;;10.63;9.48;;;;;;;12.93;77.27;100684.48;2778409;84;21160;-71
2021/10/01 18:27:41;;;;;;;15.35;10.72;;;;;;;12.82;77.66;100682.73;2770017;84;21088;-71
2021/10/01 18:31:43;;;;;;;11.43;10.18;;;;;;;12.75;78.01;100674.89;2776379;84;21016;-70
2021/10/01 18:35:45;;;;;;;11.43;9.25;;;;;;;12.70;78.33;100671.27;2787036;83;21055;-71
2021/10/01 18:39:47;;;;;;;14.18;10.30;;;;;;;12.68;78.52;100664.39;2775278;84;21067;-71
2021/10/01 18:43:49;;;;;;;14.33;11.12;;;;;;;12.60;78.71;100658.38;2776889;84;21021;-71
2021/10/01 18:47:51;;;;;;;11.93;9.80;;;;;;;12.53;78.96;100659.84;2778683;84;21036;-71
2021/10/01 18:51:52;;;;;;;16.00;10.15;;;;;;;12.48;79.29;100660.73;2762581;83;21046;-71
2021/10/01 18:55:58;;;;;;;18.80;11.00;;;;;;;12.42;79.56;100650.94;2760594;84;21111;-72
2021/10/01 19:00:10;;;;;;;14.30;10.98;;;;;;;12.37;79.74;100654.45;2737946;84;21048;-72
2021/10/01 19:04:12;;;;;;;12.35;8.73;;;;;;;12.35;79.91;100646.24;2815835;83;21087;-72
2021/10/01 19:08:13;;;;;;;14.87;10.68;;;;;;;12.33;80.10;100646.36;2820200;83;21098;-72
2021/10/01 19:12:15;;;;;;;18.52;11.25;;;;;;;12.38;80.00;100640.64;2783428;84;21079;-73
2021/10/01 19:16:17;;;;;;;12.33;9.65;;;;;;;12.40;79.99;100632.88;2806990;83;21540;-72
2021/10/01 19:20:18;;;;;;;14.07;9.68;;;;;;;12.42;79.90;100630.93;2803015;83;21466;-72
2021/10/01 19:24:25;;;;;;;19.77;11.20;;;;;;;12.39;80.15;100623.66;2800184;82;21093;-72
2021/10/01 19:32:43;;;;;;;15.48;10.05;;;;;;;12.24;81.01;100621.80;2806333;82;21138;-72
2021/10/01 19:36:45;;;;;;;11.40;10.00;;;;;;;12.22;81.44;100621.09;2799421;83;21067;-72
2021/10/01 19:40:47;;;;;;;22.82;12.05;;;;;;;12.23;81.68;100616.11;2794494;84;21146;-72
2021/10/01 19:44:48;;;;;;;17.00;11.75;;;;;;;12.23;81.91;100613.45;2796934;84;21058;-72
2021/10/01 19:48:50;;;;;;;16.93;10.90;;;;;;;12.19;82.05;100609.35;2803577;83;21097;-72
2021/10/01 19:52:52;;;;;;;15.55;11.28;;;;;;;12.20;82.05;100616.37;2815089;83;21051;-72
2021/10/01 19:56:54;;;;;;;14.65;11.53;;;;;;;12.16;82.07;100609.11;2818683;83;21051;-72
2021/10/01 20:01:02;;;;;;;14.00;10.48;;;;;;;12.12;82.27;100605.02;2810976;82;21071;-72
2021/10/01 20:05:12;;;;;;;15.88;11.35;;;;;;;12.11;82.45;100606.82;2821422;82;20981;-72
2021/10/01 20:09:09;;;;;;;17.87;11.85;;;;;;;12.07;82.66;100606.72;2829655;82;21083;-72
2021/10/01 20:13:11;;;;;;;16.35;11.08;;;;;;;12.04;82.81;100600.31;2782970;82;21063;-72
2021/10/01 20:17:13;;;;;;;16.10;10.30;;;;;;;12.02;83.22;100596.94;2735368;85;21573;-72
2021/10/01 20:21:22;;;;;;;17.23;12.03;;;;;;;11.99;83.32;100601.98;2795389;84;21091;-72
2021/10/01 20:47:04;;;;;;;23.02;11.78;;;;;;;11.74;84.04;100576.52;2780344;84;21089;-73
2021/10/01 20:50:58;;;;;;;20.37;12.80;;;;;;;11.68;84.14;100578.36;2772380;84;21606;-71
2021/10/01 20:54:56;;;;;;;32.08;14.90;;;;;;;11.62;84.40;100570.38;2782585;84;21101;-72
2021/10/01 20:59:07;;;;;;;12.90;11.55;;;;;;;11.56;84.49;100571.72;2780938;84;21042;-73
2021/10/01 21:41:44;;;;;;;14.73;9.68;;;;;;;11.41;84.84;100513.89;2781382;84;21037;-72
2021/10/01 21:46:04;;;;;;;10.03;7.62;;;;;;;11.47;84.46;100516.54;2780384;84;21038;-73
2021/10/01 21:50:05;;;;;;;13.25;8.53;;;;;;;11.49;84.23;100507.94;2780003;84;21077;-72
2021/10/01 21:54:08;;;;;;;16.65;8.58;;;;;;;11.48;83.96;100503.58;2780499;84;21058;-72